WZZ6RT LQTZ-LZIB
Flight info
| Callsign | WZZ6RT |
|---|---|
| Flight time | 0h 50m |
| Altitude | 33000 |
| Route | VIBOP P10 ADULA DCT BAREB DCT JOZEP DCT PUCOG DCT BODZA DCT XOMBA |
| Aircraft | A21N/M-SDE3FGHIRWY/LB1 |
Departure
| Time | 2026-04-24 14:13 |
|---|---|
| Airport | Tuzla International Airport (LQTZ) |
Arrival
| Time | 2026-04-24 15:03 |
|---|---|
| Airport | M. R. Štefánik Airport (LZIB) |
| Time | Latitude | Longitude | Altitude | Speed | Heading |
|---|---|---|---|---|---|
| 2026-04-24 13:52 | 44.46340 | 18.70985 | 770 ft | 0 kts | 95° |
| 2026-04-24 14:10 | 44.46340 | 18.70988 | 770 ft | 1 kts | 95° |
| 2026-04-24 14:10 | 44.46334 | 18.71007 | 770 ft | 2 kts | 132° |
| 2026-04-24 14:10 | 44.46301 | 18.71004 | 770 ft | 8 kts | 212° |
| 2026-04-24 14:10 | 44.46234 | 18.70956 | 767 ft | 12 kts | 197° |
| 2026-04-24 14:11 | 44.46143 | 18.70935 | 765 ft | 14 kts | 189° |
| 2026-04-24 14:11 | 44.46105 | 18.70927 | 764 ft | 1 kts | 188° |
| 2026-04-24 14:11 | 44.46041 | 18.70927 | 763 ft | 7 kts | 156° |
| 2026-04-24 14:12 | 44.45995 | 18.70967 | 763 ft | 7 kts | 134° |
| 2026-04-24 14:12 | 44.45983 | 18.71010 | 764 ft | 0 kts | 98° |
| 2026-04-24 14:12 | 44.45982 | 18.71026 | 764 ft | 10 kts | 98° |
| 2026-04-24 14:12 | 44.45944 | 18.71499 | 772 ft | 85 kts | 96° |
| 2026-04-24 14:13 | 44.45855 | 18.72632 | 784 ft | 148 kts | 96° |
| 2026-04-24 14:13 | 44.45721 | 18.74287 | 957 ft | 182 kts | 94° |
| 2026-04-24 14:13 | 44.45574 | 18.76051 | 1612 ft | 183 kts | 92° |
| 2026-04-24 14:13 | 44.45439 | 18.77765 | 2350 ft | 179 kts | 92° |
| 2026-04-24 14:14 | 44.45303 | 18.79489 | 2962 ft | 180 kts | 92° |
| 2026-04-24 14:14 | 44.45169 | 18.81212 | 3541 ft | 181 kts | 92° |
| 2026-04-24 14:14 | 44.45036 | 18.84779 | 4452 ft | 193 kts | 68° |
| 2026-04-24 14:15 | 44.45820 | 18.86257 | 4803 ft | 198 kts | 31° |
| 2026-04-24 14:15 | 44.47162 | 18.86832 | 5163 ft | 209 kts | 358° |
| 2026-04-24 14:15 | 44.48586 | 18.86242 | 5460 ft | 228 kts | 334° |
| 2026-04-24 14:15 | 44.50089 | 18.85239 | 5875 ft | 245 kts | 336° |
| 2026-04-24 14:16 | 44.51651 | 18.84257 | 6575 ft | 250 kts | 336° |
| 2026-04-24 14:16 | 44.53221 | 18.83278 | 7350 ft | 252 kts | 337° |
| 2026-04-24 14:16 | 44.54812 | 18.82285 | 8109 ft | 253 kts | 337° |
| 2026-04-24 14:17 | 44.58042 | 18.80264 | 9572 ft | 258 kts | 337° |
| 2026-04-24 14:17 | 44.59681 | 18.79238 | 10275 ft | 260 kts | 338° |
| 2026-04-24 14:17 | 44.62983 | 18.77167 | 11591 ft | 265 kts | 338° |
| 2026-04-24 14:18 | 44.64674 | 18.76106 | 12259 ft | 267 kts | 338° |
| 2026-04-24 14:18 | 44.66357 | 18.75050 | 12892 ft | 269 kts | 338° |
| 2026-04-24 14:18 | 44.68092 | 18.74035 | 13520 ft | 270 kts | 344° |
| 2026-04-24 14:18 | 44.69922 | 18.73434 | 14133 ft | 272 kts | 354° |
| 2026-04-24 14:19 | 44.71827 | 18.73257 | 14466 ft | 284 kts | 359° |
| 2026-04-24 14:19 | 44.73865 | 18.73212 | 14743 ft | 299 kts | 0° |
| 2026-04-24 14:19 | 44.75990 | 18.73182 | 15045 ft | 311 kts | 0° |
| 2026-04-24 14:19 | 44.78164 | 18.73149 | 15553 ft | 316 kts | 0° |
| 2026-04-24 14:20 | 44.80353 | 18.73111 | 16119 ft | 318 kts | 0° |
| 2026-04-24 14:20 | 44.82570 | 18.73071 | 16654 ft | 322 kts | 1° |
| 2026-04-24 14:20 | 44.84807 | 18.73028 | 17180 ft | 325 kts | 1° |
| 2026-04-24 14:20 | 44.87087 | 18.72986 | 17702 ft | 328 kts | 1° |
| 2026-04-24 14:21 | 44.89361 | 18.72944 | 18214 ft | 331 kts | 1° |
| 2026-04-24 14:21 | 44.91657 | 18.72902 | 18740 ft | 333 kts | 1° |
| 2026-04-24 14:21 | 44.93991 | 18.72857 | 19256 ft | 336 kts | 1° |
| 2026-04-24 14:21 | 44.96334 | 18.72813 | 19784 ft | 337 kts | 1° |
| 2026-04-24 14:22 | 44.98679 | 18.72677 | 20300 ft | 340 kts | 358° |
| 2026-04-24 14:22 | 45.01004 | 18.72295 | 20787 ft | 343 kts | 353° |
| 2026-04-24 14:22 | 45.05719 | 18.70939 | 21720 ft | 348 kts | 350° |
| 2026-04-24 14:23 | 45.08093 | 18.70191 | 22179 ft | 351 kts | 350° |
| 2026-04-24 14:23 | 45.10474 | 18.69440 | 22619 ft | 353 kts | 350° |
| 2026-04-24 14:23 | 45.12873 | 18.68683 | 23063 ft | 356 kts | 350° |
| 2026-04-24 14:23 | 45.15290 | 18.67918 | 23496 ft | 358 kts | 350° |
| 2026-04-24 14:24 | 45.17715 | 18.67153 | 23923 ft | 360 kts | 350° |
| 2026-04-24 14:24 | 45.20172 | 18.66379 | 24333 ft | 362 kts | 350° |
| 2026-04-24 14:24 | 45.22651 | 18.65598 | 24728 ft | 365 kts | 350° |
| 2026-04-24 14:24 | 45.25105 | 18.64821 | 25133 ft | 367 kts | 349° |
| 2026-04-24 14:25 | 45.27600 | 18.63897 | 25529 ft | 370 kts | 346° |
| 2026-04-24 14:25 | 45.30051 | 18.62789 | 25914 ft | 373 kts | 345° |
| 2026-04-24 14:25 | 45.32527 | 18.61611 | 26299 ft | 375 kts | 344° |
| 2026-04-24 14:25 | 45.34972 | 18.60441 | 26638 ft | 377 kts | 344° |
| 2026-04-24 14:26 | 45.37466 | 18.59246 | 27000 ft | 379 kts | 344° |
| 2026-04-24 14:26 | 45.39981 | 18.58038 | 27337 ft | 382 kts | 344° |
| 2026-04-24 14:26 | 45.42479 | 18.56841 | 27668 ft | 384 kts | 344° |
| 2026-04-24 14:26 | 45.45025 | 18.55619 | 28014 ft | 386 kts | 344° |
| 2026-04-24 14:27 | 45.47573 | 18.54395 | 28348 ft | 388 kts | 344° |
| 2026-04-24 14:27 | 45.50118 | 18.53173 | 28675 ft | 390 kts | 344° |
| 2026-04-24 14:27 | 45.52684 | 18.51938 | 29010 ft | 391 kts | 344° |
| 2026-04-24 14:27 | 45.55270 | 18.50692 | 29345 ft | 393 kts | 344° |
| 2026-04-24 14:28 | 45.57858 | 18.49443 | 29679 ft | 394 kts | 344° |
| 2026-04-24 14:28 | 45.60458 | 18.48190 | 29983 ft | 396 kts | 344° |
| 2026-04-24 14:28 | 45.63066 | 18.46932 | 30287 ft | 398 kts | 344° |
| 2026-04-24 14:28 | 45.65698 | 18.45659 | 30582 ft | 400 kts | 344° |
| 2026-04-24 14:29 | 45.68346 | 18.44425 | 30869 ft | 401 kts | 347° |
| 2026-04-24 14:29 | 45.71052 | 18.43473 | 31147 ft | 401 kts | 351° |
| 2026-04-24 14:29 | 45.73780 | 18.42857 | 31434 ft | 401 kts | 355° |
| 2026-04-24 14:29 | 45.76542 | 18.42567 | 31711 ft | 401 kts | 0° |
| 2026-04-24 14:30 | 45.78407 | 18.42560 | 31886 ft | 401 kts | 3° |
| 2026-04-24 14:30 | 45.82140 | 18.43001 | 32229 ft | 403 kts | 9° |
| 2026-04-24 14:30 | 45.84883 | 18.43572 | 32492 ft | 404 kts | 10° |
| 2026-04-24 14:30 | 45.87679 | 18.44189 | 32755 ft | 405 kts | 10° |
| 2026-04-24 14:31 | 45.90453 | 18.44808 | 33002 ft | 406 kts | 10° |
| 2026-04-24 14:31 | 45.96012 | 18.46047 | 33050 ft | 406 kts | 11° |
| 2026-04-24 14:32 | 46.01589 | 18.47296 | 33055 ft | 406 kts | 10° |
| 2026-04-24 14:32 | 46.07176 | 18.48543 | 33051 ft | 406 kts | 10° |
| 2026-04-24 14:33 | 46.12764 | 18.49795 | 33049 ft | 406 kts | 10° |
| 2026-04-24 14:33 | 46.18343 | 18.51042 | 33053 ft | 406 kts | 10° |
| 2026-04-24 14:34 | 46.23886 | 18.52286 | 33043 ft | 406 kts | 10° |
| 2026-04-24 14:34 | 46.29456 | 18.53540 | 33039 ft | 406 kts | 10° |
| 2026-04-24 14:35 | 46.35041 | 18.54799 | 33040 ft | 406 kts | 10° |
| 2026-04-24 14:35 | 46.40599 | 18.56054 | 33039 ft | 406 kts | 10° |
| 2026-04-24 14:36 | 46.46163 | 18.57313 | 33042 ft | 406 kts | 10° |
| 2026-04-24 14:36 | 46.51732 | 18.58575 | 33039 ft | 405 kts | 10° |
| 2026-04-24 14:37 | 46.57311 | 18.59843 | 33041 ft | 406 kts | 10° |
| 2026-04-24 14:37 | 46.62875 | 18.61113 | 33034 ft | 405 kts | 9° |
| 2026-04-24 14:38 | 46.68402 | 18.62375 | 33021 ft | 406 kts | 9° |
| 2026-04-24 14:38 | 46.71205 | 18.63015 | 32765 ft | 405 kts | 9° |
| 2026-04-24 14:38 | 46.73977 | 18.63647 | 32425 ft | 402 kts | 9° |
| 2026-04-24 14:38 | 46.76700 | 18.64270 | 32130 ft | 400 kts | 9° |
| 2026-04-24 14:39 | 46.79454 | 18.64904 | 31788 ft | 399 kts | 9° |
| 2026-04-24 14:39 | 46.82162 | 18.65525 | 31378 ft | 397 kts | 9° |
| 2026-04-24 14:39 | 46.84885 | 18.66150 | 30935 ft | 394 kts | 9° |
| 2026-04-24 14:39 | 46.87592 | 18.66774 | 30486 ft | 391 kts | 9° |
| 2026-04-24 14:40 | 46.90242 | 18.67383 | 30034 ft | 388 kts | 9° |
| 2026-04-24 14:40 | 46.92908 | 18.67998 | 29578 ft | 385 kts | 9° |
| 2026-04-24 14:40 | 46.95522 | 18.68602 | 29131 ft | 383 kts | 9° |
| 2026-04-24 14:40 | 46.98155 | 18.69208 | 28685 ft | 380 kts | 9° |
| 2026-04-24 14:41 | 47.00725 | 18.69802 | 28248 ft | 377 kts | 9° |
| 2026-04-24 14:41 | 47.03313 | 18.70402 | 27806 ft | 374 kts | 9° |
| 2026-04-24 14:41 | 47.05871 | 18.70995 | 27361 ft | 371 kts | 9° |
| 2026-04-24 14:41 | 47.08386 | 18.71578 | 26929 ft | 368 kts | 9° |
| 2026-04-24 14:42 | 47.10919 | 18.72167 | 26489 ft | 366 kts | 8° |
| 2026-04-24 14:42 | 47.13431 | 18.72751 | 26055 ft | 363 kts | 8° |
| 2026-04-24 14:42 | 47.15895 | 18.73313 | 25627 ft | 360 kts | 6° |
| 2026-04-24 14:42 | 47.18373 | 18.73376 | 25181 ft | 358 kts | 355° |
| 2026-04-24 14:43 | 47.20814 | 18.72663 | 24733 ft | 356 kts | 343° |
| 2026-04-24 14:43 | 47.23085 | 18.71353 | 24305 ft | 354 kts | 338° |
| 2026-04-24 14:43 | 47.25322 | 18.69893 | 23876 ft | 352 kts | 337° |
| 2026-04-24 14:43 | 47.27563 | 18.68410 | 23444 ft | 350 kts | 337° |
| 2026-04-24 14:44 | 47.29772 | 18.66953 | 23016 ft | 347 kts | 337° |
| 2026-04-24 14:44 | 47.31932 | 18.65528 | 22606 ft | 345 kts | 337° |
| 2026-04-24 14:44 | 47.34127 | 18.64083 | 22180 ft | 342 kts | 338° |
| 2026-04-24 14:44 | 47.36268 | 18.62675 | 21765 ft | 340 kts | 338° |
| 2026-04-24 14:45 | 47.38421 | 18.61259 | 21349 ft | 338 kts | 337° |
| 2026-04-24 14:45 | 47.40536 | 18.59740 | 20930 ft | 336 kts | 333° |
| 2026-04-24 14:45 | 47.42523 | 18.57991 | 20515 ft | 336 kts | 328° |
| 2026-04-24 14:45 | 47.44407 | 18.56010 | 20097 ft | 334 kts | 325° |
| 2026-04-24 14:46 | 47.46256 | 18.53944 | 19686 ft | 333 kts | 324° |
| 2026-04-24 14:46 | 47.48094 | 18.51867 | 19274 ft | 331 kts | 324° |
| 2026-04-24 14:46 | 47.49905 | 18.49820 | 18867 ft | 329 kts | 324° |
| 2026-04-24 14:46 | 47.51724 | 18.47764 | 18450 ft | 328 kts | 325° |
| 2026-04-24 14:47 | 47.53517 | 18.45741 | 18039 ft | 326 kts | 325° |
| 2026-04-24 14:47 | 47.55264 | 18.43591 | 17630 ft | 326 kts | 320° |
| 2026-04-24 14:47 | 47.56846 | 18.41215 | 17214 ft | 327 kts | 314° |
| 2026-04-24 14:47 | 47.58296 | 18.38642 | 16804 ft | 326 kts | 312° |
| 2026-04-24 14:48 | 47.59695 | 18.36055 | 16396 ft | 324 kts | 311° |
| 2026-04-24 14:48 | 47.61094 | 18.33447 | 15991 ft | 323 kts | 310° |
| 2026-04-24 14:48 | 47.62489 | 18.30839 | 15584 ft | 321 kts | 310° |
| 2026-04-24 14:48 | 47.63863 | 18.28275 | 15174 ft | 320 kts | 310° |
| 2026-04-24 14:49 | 47.65240 | 18.25709 | 14766 ft | 318 kts | 310° |
| 2026-04-24 14:49 | 47.66603 | 18.23162 | 14369 ft | 316 kts | 310° |
| 2026-04-24 14:49 | 47.67965 | 18.20619 | 13955 ft | 314 kts | 310° |
| 2026-04-24 14:49 | 47.69308 | 18.18109 | 13547 ft | 312 kts | 310° |
| 2026-04-24 14:50 | 47.70650 | 18.15595 | 13155 ft | 310 kts | 310° |
| 2026-04-24 14:50 | 47.71989 | 18.13086 | 12762 ft | 308 kts | 311° |
| 2026-04-24 14:50 | 47.73314 | 18.10602 | 12365 ft | 306 kts | 311° |
| 2026-04-24 14:50 | 47.74618 | 18.08129 | 11963 ft | 304 kts | 309° |
| 2026-04-24 14:51 | 47.75795 | 18.05548 | 11569 ft | 303 kts | 304° |
| 2026-04-24 14:51 | 47.76815 | 18.02843 | 11170 ft | 303 kts | 301° |
| 2026-04-24 14:51 | 47.77777 | 18.00076 | 10776 ft | 300 kts | 300° |
| 2026-04-24 14:51 | 47.78722 | 17.97330 | 10386 ft | 298 kts | 300° |
| 2026-04-24 14:52 | 47.79655 | 17.94604 | 10151 ft | 288 kts | 300° |
| 2026-04-24 14:52 | 47.80536 | 17.92027 | 10065 ft | 275 kts | 300° |
| 2026-04-24 14:52 | 47.81393 | 17.89518 | 9796 ft | 269 kts | 300° |
| 2026-04-24 14:52 | 47.82253 | 17.87011 | 9425 ft | 267 kts | 300° |
| 2026-04-24 14:53 | 47.83093 | 17.84563 | 9070 ft | 265 kts | 300° |
| 2026-04-24 14:53 | 47.83928 | 17.82128 | 8712 ft | 263 kts | 300° |
| 2026-04-24 14:53 | 47.84747 | 17.79731 | 8362 ft | 260 kts | 300° |
| 2026-04-24 14:53 | 47.85561 | 17.77356 | 8008 ft | 258 kts | 300° |
| 2026-04-24 14:54 | 47.86370 | 17.74985 | 7658 ft | 256 kts | 299° |
| 2026-04-24 14:54 | 47.87175 | 17.72622 | 7317 ft | 254 kts | 299° |
| 2026-04-24 14:54 | 47.87958 | 17.70316 | 6982 ft | 252 kts | 299° |
| 2026-04-24 14:54 | 47.88747 | 17.67995 | 6635 ft | 250 kts | 299° |
| 2026-04-24 14:55 | 47.89270 | 17.66453 | 6515 ft | 244 kts | 298° |
| 2026-04-24 14:55 | 47.90204 | 17.63530 | 6395 ft | 227 kts | 298° |
| 2026-04-24 14:55 | 47.90996 | 17.61571 | 6290 ft | 220 kts | 307° |
| 2026-04-24 14:55 | 47.91984 | 17.59837 | 6032 ft | 222 kts | 315° |
| 2026-04-24 14:56 | 47.93100 | 17.58231 | 5703 ft | 221 kts | 316° |
| 2026-04-24 14:56 | 47.94194 | 17.56673 | 5406 ft | 219 kts | 316° |
| 2026-04-24 14:56 | 47.95290 | 17.55066 | 5116 ft | 219 kts | 316° |
| 2026-04-24 14:56 | 47.96349 | 17.53471 | 4853 ft | 220 kts | 315° |
| 2026-04-24 14:57 | 47.97416 | 17.51831 | 4582 ft | 218 kts | 315° |
| 2026-04-24 14:57 | 47.98468 | 17.50192 | 4307 ft | 217 kts | 315° |
| 2026-04-24 14:57 | 47.99503 | 17.48568 | 4044 ft | 218 kts | 315° |
| 2026-04-24 14:57 | 48.00546 | 17.46927 | 3910 ft | 218 kts | 315° |
| 2026-04-24 14:58 | 48.01586 | 17.45293 | 3829 ft | 218 kts | 315° |
| 2026-04-24 14:58 | 48.02612 | 17.43681 | 3734 ft | 209 kts | 315° |
| 2026-04-24 14:58 | 48.03600 | 17.42132 | 3616 ft | 202 kts | 315° |
| 2026-04-24 14:58 | 48.04557 | 17.40636 | 3417 ft | 202 kts | 315° |
| 2026-04-24 14:59 | 48.05517 | 17.39137 | 3227 ft | 192 kts | 315° |
| 2026-04-24 14:59 | 48.06414 | 17.37744 | 3005 ft | 183 kts | 316° |
| 2026-04-24 14:59 | 48.07276 | 17.36399 | 2725 ft | 177 kts | 315° |
| 2026-04-24 14:59 | 48.08104 | 17.35086 | 2483 ft | 169 kts | 315° |
| 2026-04-24 15:00 | 48.08891 | 17.33845 | 2261 ft | 161 kts | 315° |
| 2026-04-24 15:00 | 48.09636 | 17.32671 | 2046 ft | 147 kts | 315° |
| 2026-04-24 15:00 | 48.10312 | 17.31598 | 1898 ft | 140 kts | 316° |
| 2026-04-24 15:00 | 48.11000 | 17.30575 | 1748 ft | 139 kts | 317° |
| 2026-04-24 15:01 | 48.11681 | 17.29560 | 1588 ft | 139 kts | 316° |
| 2026-04-24 15:01 | 48.12350 | 17.28523 | 1421 ft | 138 kts | 314° |
| 2026-04-24 15:01 | 48.12994 | 17.27465 | 1240 ft | 138 kts | 314° |
| 2026-04-24 15:01 | 48.13667 | 17.26433 | 1032 ft | 137 kts | 316° |
| 2026-04-24 15:02 | 48.14334 | 17.25421 | 845 ft | 137 kts | 315° |
| 2026-04-24 15:02 | 48.14995 | 17.24399 | 661 ft | 136 kts | 314° |
| 2026-04-24 15:02 | 48.15649 | 17.23379 | 488 ft | 135 kts | 315° |
| 2026-04-24 15:02 | 48.16273 | 17.22414 | 435 ft | 115 kts | 313° |
| 2026-04-24 15:03 | 48.16712 | 17.21730 | 431 ft | 65 kts | 314° |
| 2026-04-24 15:03 | 48.16992 | 17.21300 | 429 ft | 52 kts | 314° |
| 2026-04-24 15:03 | 48.17211 | 17.20956 | 430 ft | 38 kts | 315° |
| 2026-04-24 15:03 | 48.17382 | 17.20692 | 432 ft | 33 kts | 314° |
| 2026-04-24 15:04 | 48.17508 | 17.20492 | 432 ft | 14 kts | 310° |
| 2026-04-24 15:04 | 48.17519 | 17.20366 | 434 ft | 12 kts | 234° |
| 2026-04-24 15:04 | 48.17451 | 17.20309 | 435 ft | 11 kts | 187° |
| 2026-04-24 15:04 | 48.17373 | 17.20338 | 435 ft | 12 kts | 145° |
| 2026-04-24 15:05 | 48.17310 | 17.20429 | 435 ft | 13 kts | 134° |
| 2026-04-24 15:05 | 48.17243 | 17.20534 | 434 ft | 14 kts | 133° |
| 2026-04-24 15:05 | 48.17153 | 17.20560 | 432 ft | 15 kts | 219° |
| 2026-04-24 15:05 | 48.17078 | 17.20454 | 433 ft | 14 kts | 223° |
| 2026-04-24 15:06 | 48.17010 | 17.20358 | 435 ft | 12 kts | 224° |
| 2026-04-24 15:06 | 48.16973 | 17.20288 | 435 ft | 5 kts | 269° |
| 2026-04-24 15:06 | 48.16992 | 17.20253 | 435 ft | 3 kts | 317° |
| 2026-04-24 15:06 | 48.17004 | 17.20234 | 435 ft | 1 kts | 312° |
| 2026-04-24 15:07 | 48.17004 | 17.20233 | 435 ft | 0 kts | 312° |